createdAt,value
2019-01-11T00:02:05.622Z,18.17
2019-01-11T00:04:36.016Z,19.23
2019-01-11T00:07:05.627Z,18.70
2019-01-11T00:09:36.319Z,19.90
2019-01-11T00:12:10.654Z,17.60
2019-01-11T00:14:40.684Z,19.13
2019-01-11T00:17:10.259Z,16.67
2019-01-11T00:19:39.775Z,17.70
2019-01-11T00:22:10.812Z,19.33
2019-01-11T00:24:41.557Z,21.03
2019-01-11T00:27:12.454Z,20.80
2019-01-11T00:29:41.947Z,21.57
2019-01-11T00:32:12.833Z,18.17
2019-01-11T00:34:42.246Z,20.53
2019-01-11T00:37:13.138Z,18.87
2019-01-11T00:39:43.821Z,20.03
2019-01-11T00:42:13.361Z,19.83
2019-01-11T00:44:42.855Z,19.83
2019-01-11T00:47:12.360Z,20.00
2019-01-11T00:49:41.889Z,19.57
2019-01-11T00:52:11.357Z,16.80
2019-01-11T00:54:41.827Z,16.97
2019-01-11T00:57:11.528Z,16.47
2019-01-11T00:59:41.074Z,16.53
2019-01-11T01:02:10.616Z,17.67
2019-01-11T01:04:40.087Z,20.13
2019-01-11T01:07:11.649Z,16.03
2019-01-11T01:09:41.174Z,17.13
2019-01-11T01:12:10.851Z,15.70
2019-01-11T01:14:42.608Z,15.73
2019-01-11T01:17:14.485Z,13.70
2019-01-11T01:19:44.187Z,14.37
2019-01-11T01:22:13.768Z,17.00
2019-01-11T01:24:43.231Z,16.43
2019-01-11T01:27:12.774Z,14.87
2019-01-11T01:29:42.159Z,13.13
2019-01-11T01:32:12.153Z,15.43
2019-01-11T01:34:41.705Z,14.27
2019-01-11T01:37:11.162Z,13.63
2019-01-11T01:39:40.613Z,15.37
2019-01-11T01:42:10.094Z,13.27
2019-01-11T01:44:39.829Z,14.57
2019-01-11T01:47:09.955Z,15.43
2019-01-11T01:49:39.792Z,12.67
2019-01-11T01:52:09.479Z,14.87
2019-01-11T01:54:38.994Z,15.90
2019-01-11T01:57:08.592Z,12.87
2019-01-11T01:59:38.204Z,13.33
2019-01-11T02:02:07.845Z,16.03
2019-01-11T02:04:37.389Z,16.30
2019-01-11T02:07:07.060Z,12.50
2019-01-11T02:09:39.168Z,16.47
2019-01-11T02:12:09.967Z,17.03
2019-01-11T02:14:40.448Z,14.80
2019-01-11T02:17:11.222Z,14.50
2019-01-11T02:19:40.860Z,16.50
2019-01-11T02:22:12.722Z,15.83
2019-01-11T02:24:44.616Z,13.83
2019-01-11T02:27:14.163Z,13.97
2019-01-11T02:29:43.796Z,17.33
2019-01-11T02:32:13.347Z,15.73
2019-01-11T02:34:43.251Z,13.53
2019-01-11T02:37:12.876Z,13.33
2019-01-11T02:39:43.523Z,13.30
2019-01-11T02:42:14.713Z,16.63
2019-01-11T02:44:44.193Z,14.50
2019-01-11T02:47:15.198Z,13.57
2019-01-11T02:49:45.024Z,12.37
2019-01-11T02:52:14.873Z,14.03
2019-01-11T02:54:44.789Z,13.13
2019-01-11T02:57:14.659Z,12.17
2019-01-11T02:59:44.143Z,14.37
2019-01-11T03:02:13.854Z,11.63
2019-01-11T03:04:45.512Z,12.60
2019-01-11T03:07:15.150Z,12.13
2019-01-11T03:09:45.977Z,13.20
2019-01-11T03:12:16.674Z,12.27
2019-01-11T03:14:46.430Z,13.70
2019-01-11T03:17:16.013Z,12.77
2019-01-11T03:19:47.861Z,12.80
2019-01-11T03:22:16.848Z,13.23
2019-01-11T03:24:47.548Z,12.13
2019-01-11T03:27:17.370Z,12.63
2019-01-11T03:29:46.960Z,10.97
2019-01-11T03:32:16.588Z,10.70
2019-01-11T03:35:21.955Z,12.27
2019-01-11T03:37:54.631Z,10.47
2019-01-11T03:40:24.912Z,11.60
2019-01-11T03:42:54.682Z,9.23
2019-01-11T03:45:25.193Z,12.27
2019-01-11T03:47:54.738Z,11.23
2019-01-11T03:50:25.901Z,10.40
2019-01-11T03:52:55.429Z,11.57
2019-01-11T03:55:24.990Z,11.13
2019-01-11T03:57:54.619Z,11.77
2019-01-11T04:00:25.145Z,10.80
2019-01-11T04:02:54.766Z,10.50
2019-01-11T04:05:24.290Z,9.53
2019-01-11T04:07:53.767Z,9.93
2019-01-11T04:10:25.244Z,12.37
2019-01-11T04:12:55.127Z,11.33
2019-01-11T04:15:25.761Z,11.70
2019-01-11T04:18:16.904Z,11.00
2019-01-11T04:20:46.801Z,10.20
2019-01-11T04:23:16.285Z,9.87
2019-01-11T04:25:46.986Z,11.43
2019-01-11T04:28:16.906Z,10.00
2019-01-11T04:30:46.397Z,9.37
2019-01-11T04:33:15.947Z,10.90
2019-01-11T04:35:47.388Z,8.67
2019-01-11T04:38:18.050Z,8.97
2019-01-11T04:40:47.426Z,11.20
2019-01-11T04:43:16.879Z,9.20
2019-01-11T04:45:46.473Z,9.20
2019-01-11T04:48:15.988Z,9.90
2019-01-11T04:50:45.522Z,10.90
2019-01-11T04:53:15.016Z,10.07
2019-01-11T04:55:45.397Z,9.97
2019-01-11T04:58:14.762Z,8.70
2019-01-11T05:00:44.286Z,10.63
2019-01-11T05:03:13.793Z,8.87
2019-01-11T05:05:43.308Z,9.70
2019-01-11T05:08:12.768Z,9.93
2019-01-11T05:10:43.256Z,9.67
2019-01-11T05:13:40.589Z,8.63
2019-01-11T05:16:10.691Z,9.23
2019-01-11T05:18:42.419Z,9.83
2019-01-11T05:21:11.890Z,9.20
2019-01-11T05:23:41.354Z,10.07
2019-01-11T05:26:11.641Z,9.33
2019-01-11T05:28:41.133Z,10.43
2019-01-11T05:31:10.620Z,10.33
2019-01-11T05:33:42.457Z,10.40
2019-01-11T05:36:11.929Z,10.27
2019-01-11T05:38:41.483Z,9.10
2019-01-11T05:41:13.337Z,9.20
2019-01-11T05:43:42.869Z,9.23
2019-01-11T05:46:12.378Z,9.10
2019-01-11T05:48:41.804Z,9.97
2019-01-11T05:51:11.375Z,9.53
2019-01-11T05:53:40.828Z,8.77
2019-01-11T05:56:12.689Z,10.93
2019-01-11T05:58:52.360Z,9.30
2019-01-11T06:01:24.211Z,10.93
2019-01-11T06:03:53.884Z,10.77
2019-01-11T06:06:23.422Z,10.63
2019-01-11T06:08:52.957Z,11.20
2019-01-11T06:11:22.345Z,11.63
2019-01-11T06:13:51.865Z,12.53
2019-01-11T06:16:21.361Z,11.87
2019-01-11T06:18:54.730Z,10.30
2019-01-11T06:21:24.182Z,10.40
2019-01-11T06:23:53.723Z,10.73
2019-01-11T06:26:23.779Z,11.17
2019-01-11T06:28:53.348Z,10.20
2019-01-11T06:31:22.981Z,12.97
2019-01-11T06:33:52.731Z,12.37
2019-01-11T06:36:24.140Z,10.70
2019-01-11T06:38:53.574Z,12.80
2019-01-11T06:41:24.666Z,13.47
2019-01-11T06:43:54.476Z,11.47
2019-01-11T06:46:25.064Z,11.83
2019-01-11T06:48:59.373Z,11.37
2019-01-11T06:51:31.177Z,12.20
2019-01-11T06:54:00.662Z,13.43
2019-01-11T06:56:30.193Z,11.27
2019-01-11T06:58:59.609Z,11.27
2019-01-11T07:01:29.292Z,10.17
2019-01-11T07:03:58.802Z,12.00
2019-01-11T07:06:28.458Z,10.83
2019-01-11T07:08:58.171Z,12.13
2019-01-11T07:11:28.782Z,11.13
2019-01-11T07:13:58.564Z,11.73
2019-01-11T07:16:28.151Z,12.50
2019-01-11T07:18:58.951Z,13.03
2019-01-11T07:21:28.623Z,12.37
2019-01-11T07:23:58.215Z,12.50
2019-01-11T07:26:27.802Z,13.03
2019-01-11T07:28:57.411Z,10.83
2019-01-11T07:31:31.657Z,10.27
2019-01-11T07:34:01.257Z,9.60
2019-01-11T07:36:41.311Z,14.20
2019-01-11T07:39:23.976Z,13.70
2019-01-11T07:41:53.505Z,11.97
2019-01-11T07:44:26.180Z,12.53
2019-01-11T07:46:56.075Z,11.73
2019-01-11T07:49:25.768Z,12.57
2019-01-11T07:51:55.277Z,11.20
2019-01-11T07:54:26.456Z,11.50
2019-01-11T07:56:56.069Z,11.33
2019-01-11T07:59:25.628Z,11.97
2019-01-11T08:01:55.212Z,14.03
2019-01-11T08:04:24.821Z,10.33
2019-01-11T08:06:55.613Z,12.93
2019-01-11T08:09:25.132Z,11.80
2019-01-11T08:11:54.732Z,11.50
2019-01-11T08:14:24.514Z,11.07
2019-01-11T08:16:54.080Z,10.67
2019-01-11T08:19:23.570Z,10.33
2019-01-11T08:21:53.325Z,11.60
2019-01-11T08:24:22.800Z,13.60
2019-01-11T08:26:52.297Z,10.97
2019-01-11T08:29:21.785Z,9.97
2019-01-11T08:31:52.510Z,11.07
2019-01-11T08:34:22.011Z,9.37
2019-01-11T08:36:51.485Z,11.73
2019-01-11T08:39:23.069Z,11.33
2019-01-11T08:41:52.536Z,12.53
2019-01-11T08:44:22.084Z,9.57
2019-01-11T08:46:51.594Z,10.63
2019-01-11T08:49:21.082Z,12.13
2019-01-11T08:51:50.526Z,9.53
2019-01-11T08:54:21.391Z,10.63
2019-01-11T08:56:50.779Z,8.57
2019-01-11T08:59:21.630Z,9.50
2019-01-11T09:01:51.163Z,9.70
2019-01-11T09:04:20.633Z,8.70
2019-01-11T09:06:50.128Z,7.60
2019-01-11T09:09:19.595Z,8.97
2019-01-11T09:11:49.166Z,7.13
2019-01-11T09:14:39.773Z,7.80
2019-01-11T09:17:09.291Z,9.17
2019-01-11T09:19:38.780Z,8.33
2019-01-11T09:22:08.256Z,7.50
2019-01-11T09:24:38.950Z,7.47
2019-01-11T09:27:08.701Z,7.73
2019-01-11T09:29:38.256Z,6.27
2019-01-11T09:32:07.778Z,7.37
2019-01-11T09:34:37.583Z,7.77
2019-01-11T09:37:08.260Z,7.00
2019-01-11T09:39:37.725Z,7.60
2019-01-11T09:42:07.384Z,7.17
2019-01-11T09:44:36.876Z,4.77
2019-01-11T09:47:06.387Z,6.37
2019-01-11T09:49:35.987Z,6.10
2019-01-11T09:52:05.560Z,5.87
2019-01-11T09:54:35.056Z,4.57
2019-01-11T09:57:05.047Z,5.90
2019-01-11T09:59:35.110Z,5.70
2019-01-11T10:02:19.061Z,4.93
2019-01-11T10:04:48.621Z,5.20
2019-01-11T10:07:25.602Z,4.77
2019-01-11T10:09:55.447Z,5.50
2019-01-11T10:12:26.086Z,4.90
2019-01-11T10:14:55.587Z,4.30
2019-01-11T10:17:25.163Z,5.40
2019-01-11T10:19:54.789Z,5.07
2019-01-11T10:22:25.586Z,4.40
2019-01-11T10:24:55.158Z,3.67
2019-01-11T10:27:24.845Z,5.23
2019-01-11T10:29:54.338Z,4.57
2019-01-11T10:32:24.038Z,4.90
2019-01-11T10:34:56.269Z,4.40
2019-01-11T10:37:26.673Z,4.20
2019-01-11T10:39:56.112Z,3.90
2019-01-11T10:42:25.764Z,4.00
2019-01-11T10:44:56.154Z,5.37
2019-01-11T10:47:25.658Z,5.57
2019-01-11T10:49:55.234Z,5.97
2019-01-11T10:52:26.046Z,3.70
2019-01-11T10:54:55.688Z,3.70
2019-01-11T10:57:25.260Z,3.67
2019-01-11T10:59:55.858Z,5.03
2019-01-11T11:02:34.410Z,3.50
2019-01-11T11:05:09.471Z,3.40
2019-01-11T11:07:39.754Z,3.07
2019-01-11T11:10:10.605Z,3.73
2019-01-11T11:12:40.243Z,3.73
2019-01-11T11:15:10.817Z,3.37
2019-01-11T11:17:40.330Z,3.87
2019-01-11T11:20:11.319Z,3.10
2019-01-11T11:22:40.818Z,3.30
2019-01-11T11:25:12.279Z,3.53
2019-01-11T11:27:41.731Z,3.17
2019-01-11T11:30:12.803Z,3.83
2019-01-11T11:32:58.250Z,3.53
2019-01-11T11:35:28.882Z,3.30
2019-01-11T11:38:01.316Z,3.53
2019-01-11T11:40:31.944Z,2.90
2019-01-11T11:43:01.465Z,3.30
2019-01-11T11:45:31.874Z,3.13
2019-01-11T11:48:01.371Z,3.07
2019-01-11T11:50:31.188Z,4.90
2019-01-11T11:53:01.105Z,3.63
2019-01-11T11:55:32.602Z,4.73
2019-01-11T11:58:02.029Z,6.20
2019-01-11T12:00:31.567Z,8.00
2019-01-11T12:03:01.043Z,4.90
2019-01-11T12:05:30.528Z,3.20
2019-01-11T12:08:02.566Z,3.27
2019-01-11T12:10:32.155Z,4.20
2019-01-11T12:13:01.758Z,3.13
2019-01-11T12:15:31.201Z,2.70
2019-01-11T12:18:00.756Z,3.00
2019-01-11T12:20:34.066Z,3.77
2019-01-11T12:23:03.491Z,5.90
2019-01-11T12:25:33.959Z,3.50
2019-01-11T12:28:03.392Z,3.10
2019-01-11T12:30:33.924Z,2.73
2019-01-11T12:33:03.708Z,2.87
2019-01-11T12:35:33.129Z,2.67
2019-01-11T12:38:02.608Z,2.90
2019-01-11T12:40:32.022Z,2.70
2019-01-11T12:43:01.460Z,2.97
2019-01-11T12:45:31.010Z,3.13
2019-01-11T12:48:00.486Z,3.27
2019-01-11T12:50:30.051Z,2.90
2019-01-11T12:52:59.508Z,3.30
2019-01-11T12:55:30.679Z,3.30
2019-01-11T12:58:00.490Z,3.00
2019-01-11T13:00:31.350Z,2.67
2019-01-11T13:03:01.399Z,3.17
2019-01-11T13:05:30.867Z,3.00
2019-01-11T13:08:02.857Z,3.97
2019-01-11T13:10:39.751Z,3.63
2019-01-11T13:13:11.362Z,3.33
2019-01-11T13:15:41.496Z,3.40
2019-01-11T13:18:11.054Z,3.13
2019-01-11T13:20:41.167Z,3.00
2019-01-11T13:23:10.831Z,2.97
2019-01-11T13:25:40.496Z,3.03
2019-01-11T13:28:10.032Z,3.30
2019-01-11T13:30:40.289Z,4.20
2019-01-11T13:33:09.870Z,3.43
2019-01-11T13:35:39.609Z,3.70
2019-01-11T13:38:09.231Z,3.60
2019-01-11T13:40:39.323Z,3.87
2019-01-11T13:43:09.000Z,4.90
2019-01-11T13:45:38.867Z,5.17
2019-01-11T13:48:10.354Z,4.13
2019-01-11T13:50:41.259Z,3.73
2019-01-11T13:53:12.508Z,3.40
2019-01-11T13:55:41.995Z,3.67
2019-01-11T13:58:11.610Z,4.60
2019-01-11T14:00:41.243Z,3.90
2019-01-11T14:03:11.146Z,3.57
2019-01-11T14:05:40.662Z,3.80
2019-01-11T14:08:10.171Z,3.53
2019-01-11T14:10:41.385Z,3.70
2019-01-11T14:13:10.939Z,3.60
2019-01-11T14:15:40.454Z,3.70
2019-01-11T14:18:10.025Z,3.67
2019-01-11T14:20:39.549Z,4.13
2019-01-11T14:23:09.713Z,3.73
2019-01-11T14:25:39.423Z,5.30
2019-01-11T14:28:08.954Z,3.50
2019-01-11T14:30:39.078Z,3.53
2019-01-11T14:33:09.131Z,3.77
2019-01-11T14:35:41.080Z,4.83
2019-01-11T14:38:10.641Z,3.90
2019-01-11T14:40:45.102Z,3.43
2019-01-11T14:43:14.644Z,4.37
2019-01-11T14:45:45.094Z,4.10
2019-01-11T14:48:14.653Z,5.97
2019-01-11T14:50:44.673Z,6.37
2019-01-11T14:53:14.302Z,7.27
2019-01-11T14:55:45.060Z,10.90
2019-01-11T14:58:14.658Z,7.87
2019-01-11T15:00:46.536Z,5.20
2019-01-11T15:03:16.058Z,5.20
2019-01-11T15:05:45.644Z,6.10
2019-01-11T15:08:17.301Z,4.20
2019-01-11T15:10:59.099Z,5.13
2019-01-11T15:13:29.215Z,4.10
2019-01-11T15:15:58.830Z,4.00
2019-01-11T15:18:28.388Z,4.33
2019-01-11T15:20:58.560Z,4.90
2019-01-11T15:23:28.371Z,4.10
2019-01-11T15:25:58.094Z,4.47
2019-01-11T15:28:27.623Z,4.53
2019-01-11T15:30:57.185Z,5.20
2019-01-11T15:33:26.770Z,5.47
2019-01-11T15:35:56.306Z,5.20
2019-01-11T15:38:25.864Z,5.60
2019-01-11T15:40:55.438Z,5.00
2019-01-11T15:43:25.001Z,6.10
2019-01-11T15:46:06.182Z,6.23
2019-01-11T15:48:52.726Z,5.37
2019-01-11T15:51:27.822Z,4.73
2019-01-11T15:53:58.401Z,5.37
2019-01-11T15:56:28.408Z,5.33
2019-01-11T15:58:58.001Z,5.40
2019-01-11T16:01:28.271Z,4.93
2019-01-11T16:03:57.866Z,5.27
2019-01-11T16:06:30.727Z,5.90
2019-01-11T16:09:56.336Z,6.50
2019-01-11T16:13:01.140Z,5.93
2019-01-11T16:16:00.013Z,5.53
2019-01-11T16:18:31.609Z,6.37
2019-01-11T16:21:04.270Z,7.37
2019-01-11T16:23:36.294Z,6.97
2019-01-11T16:26:07.146Z,8.30
2019-01-11T16:28:36.715Z,6.97
2019-01-11T16:31:07.853Z,6.87
2019-01-11T16:33:38.952Z,9.50
2019-01-11T16:36:08.520Z,8.10
2019-01-11T16:38:39.222Z,7.97
2019-01-11T16:41:08.758Z,9.50
2019-01-11T16:43:39.827Z,9.40
2019-01-11T16:46:09.357Z,9.53
2019-01-11T16:48:38.970Z,9.80
2019-01-11T16:51:09.805Z,11.77
2019-01-11T16:53:39.439Z,20.23
2019-01-11T16:56:09.120Z,18.40
2019-01-11T16:58:40.219Z,19.80
2019-01-11T17:01:10.192Z,22.83
2019-01-11T17:03:40.703Z,19.90
2019-01-11T17:06:10.244Z,21.87
2019-01-11T17:08:39.828Z,20.33
2019-01-11T17:11:26.001Z,19.37
2019-01-11T17:13:56.672Z,21.17
2019-01-11T17:16:26.239Z,22.17
2019-01-11T17:18:55.916Z,25.10
2019-01-11T17:21:25.632Z,22.97
2019-01-11T17:23:57.475Z,21.10
2019-01-11T17:26:27.076Z,23.77
2019-01-11T17:28:56.670Z,22.67
2019-01-11T17:31:26.225Z,22.73
2019-01-11T17:33:55.917Z,21.90
2019-01-11T17:36:26.355Z,20.30
2019-01-11T17:38:56.003Z,19.23
2019-01-11T17:41:25.858Z,18.00
2019-01-11T17:43:55.512Z,19.17
2019-01-11T17:46:25.104Z,17.83
2019-01-11T17:48:54.862Z,17.37
2019-01-11T17:51:25.869Z,21.77
2019-01-11T17:53:56.711Z,24.63
2019-01-11T17:56:26.367Z,17.87
2019-01-11T17:58:56.354Z,18.50
2019-01-11T18:01:25.907Z,17.73
2019-01-11T18:03:55.523Z,17.13
2019-01-11T18:06:24.996Z,19.67
2019-01-11T18:08:55.872Z,17.17
2019-01-11T18:11:25.471Z,20.03
2019-01-11T18:13:55.343Z,19.60
2019-01-11T18:16:28.778Z,21.13
2019-01-11T18:18:58.244Z,21.13
2019-01-11T18:21:30.092Z,21.50
2019-01-11T18:23:59.926Z,21.47
2019-01-11T18:26:29.583Z,19.30
2019-01-11T18:29:00.966Z,19.37
2019-01-11T18:31:30.594Z,19.63
2019-01-11T18:34:00.227Z,21.13
2019-01-11T18:36:30.111Z,18.00
2019-01-11T18:39:02.082Z,19.63
2019-01-11T18:41:32.624Z,17.40
2019-01-11T18:44:02.153Z,18.47
2019-01-11T18:46:32.812Z,16.77
2019-01-11T18:49:04.409Z,15.23
2019-01-11T18:51:35.055Z,15.47
2019-01-11T18:54:04.666Z,18.03
2019-01-11T18:56:34.689Z,18.53
2019-01-11T18:59:07.240Z,16.20
2019-01-11T19:01:39.890Z,16.23
2019-01-11T19:04:09.161Z,14.40
2019-01-11T19:06:38.951Z,16.93
2019-01-11T19:09:11.208Z,17.53
2019-01-11T19:11:40.636Z,22.53
2019-01-11T19:14:10.157Z,29.57
2019-01-11T19:16:39.699Z,26.30
2019-01-11T19:19:10.472Z,27.43
2019-01-11T19:21:41.472Z,27.40
2019-01-11T19:24:10.973Z,29.13
2019-01-11T19:26:40.889Z,28.93
2019-01-11T19:29:11.487Z,36.77
2019-01-11T19:31:42.031Z,43.67
2019-01-11T19:34:11.511Z,48.87
2019-01-11T19:36:40.973Z,52.30
2019-01-11T19:39:11.027Z,50.30
2019-01-11T19:41:44.667Z,64.23
2019-01-11T19:44:22.097Z,53.53
2019-01-11T19:46:53.703Z,53.00
2019-01-11T19:49:25.038Z,49.17
2019-01-11T19:51:54.545Z,52.13
2019-01-11T19:54:24.720Z,49.77
2019-01-11T19:56:54.193Z,45.53
2019-01-11T19:59:25.778Z,39.50
2019-01-11T20:01:55.271Z,41.90
2019-01-11T20:04:24.894Z,46.80
2019-01-11T20:06:54.382Z,36.13
2019-01-11T20:09:23.849Z,33.63
2019-01-11T20:11:53.645Z,56.73
2019-01-11T20:14:23.360Z,54.07
2019-01-11T20:16:53.885Z,58.30
2019-01-11T20:19:23.383Z,90.93
2019-01-11T20:21:55.348Z,86.53
2019-01-11T20:24:24.916Z,39.10
2019-01-11T20:26:54.430Z,38.23
2019-01-11T20:29:23.911Z,37.07
2019-01-11T20:31:53.554Z,38.30
2019-01-11T20:34:23.074Z,33.70
2019-01-11T20:37:30.340Z,36.50
2019-01-11T20:39:59.814Z,32.00
2019-01-11T20:42:29.374Z,28.87
2019-01-11T20:44:58.900Z,26.63
2019-01-11T20:47:28.280Z,29.53
2019-01-11T20:49:57.792Z,29.93
2019-01-11T20:52:27.470Z,32.63
2019-01-11T20:54:57.103Z,34.23
2019-01-11T20:57:26.546Z,31.10
2019-01-11T20:59:55.927Z,38.17
2019-01-11T21:02:25.388Z,38.00
2019-01-11T21:04:54.928Z,38.13
2019-01-11T21:07:26.721Z,34.87
2019-01-11T21:09:56.210Z,37.80
2019-01-11T21:12:25.662Z,34.73
2019-01-11T21:14:55.302Z,34.43
2019-01-11T21:17:26.798Z,36.23
2019-01-11T21:19:56.356Z,32.67
2019-01-11T21:22:25.884Z,31.83
2019-01-11T21:25:00.219Z,29.90
2019-01-11T21:27:29.366Z,29.83
2019-01-11T21:29:58.811Z,30.23
2019-01-11T21:32:28.330Z,29.17
2019-01-11T21:34:57.800Z,23.63
2019-01-11T21:37:27.266Z,23.97
2019-01-11T21:39:58.861Z,25.93
2019-01-11T21:42:29.104Z,23.70
2019-01-11T21:44:59.474Z,22.37
2019-01-11T21:47:28.911Z,21.67
2019-01-11T21:49:58.360Z,22.70
2019-01-11T21:52:30.782Z,25.83
2019-01-11T21:55:01.263Z,22.47
2019-01-11T21:57:31.231Z,22.00
2019-01-11T22:00:00.710Z,22.03
2019-01-11T22:02:30.292Z,23.97
2019-01-11T22:04:59.858Z,20.97
2019-01-11T22:07:29.405Z,26.70
2019-01-11T22:09:59.044Z,21.37
2019-01-11T22:12:28.523Z,20.30
2019-01-11T22:14:58.346Z,20.73
2019-01-11T22:17:27.906Z,21.17
2019-01-11T22:20:00.252Z,20.43
2019-01-11T22:22:32.725Z,18.67
2019-01-11T22:25:02.311Z,19.67
2019-01-11T22:27:34.473Z,18.60
2019-01-11T22:30:05.740Z,19.03
2019-01-11T22:32:37.466Z,19.53
2019-01-11T22:35:10.309Z,24.00
2019-01-11T22:37:41.577Z,18.83
2019-01-11T22:40:14.249Z,22.27
2019-01-11T22:42:43.821Z,23.07
2019-01-11T22:45:14.354Z,21.13
2019-01-11T22:47:44.155Z,23.37
2019-01-11T22:50:14.231Z,27.23
2019-01-11T22:52:45.082Z,23.63
2019-01-11T22:55:15.304Z,24.13
2019-01-11T22:57:44.836Z,23.87
2019-01-11T23:00:35.189Z,23.90
2019-01-11T23:03:07.143Z,20.20
2019-01-11T23:05:37.486Z,21.40
2019-01-11T23:08:10.460Z,20.23
2019-01-11T23:11:21.543Z,22.13
2019-01-11T23:13:51.056Z,20.27
2019-01-11T23:16:26.529Z,20.00
2019-01-11T23:18:57.575Z,20.27
2019-01-11T23:21:27.030Z,20.87
2019-01-11T23:23:57.542Z,18.50
2019-01-11T23:26:27.210Z,17.83
2019-01-11T23:28:56.844Z,18.40
2019-01-11T23:31:26.522Z,17.70
2019-01-11T23:33:56.046Z,19.93
2019-01-11T23:36:25.621Z,19.77
2019-01-11T23:38:55.100Z,18.63
2019-01-11T23:41:24.720Z,17.17
2019-01-11T23:43:54.259Z,17.63
2019-01-11T23:46:23.671Z,21.33
2019-01-11T23:48:53.138Z,17.17
2019-01-11T23:51:22.516Z,19.10
2019-01-11T23:53:52.000Z,18.67
2019-01-11T23:56:21.547Z,17.30
2019-01-11T23:58:51.000Z,18.03
